Terminal Aerodrome Forecast
Issued by NWS Bismarck, ND

Home | Current Version | Previous Version | Text Only | Print | Product List | Glossary On
Versions: 1 2 3 4 5 6 7 8 9 10 11 12 13 14 15 16 17 18 19 20 21 22 23
000
FTUS43 KBIS 221000 AAA
TAFISN
TAF AMD
KISN 221037Z 2211/2306 29010KT 2SM -SN BKN007 OVC013
      TEMPO 2211/2215 5SM -SN OVC015
     FM221500 33016KT 1SM -SN SCT008 OVC012
     FM230000 35016KT P6SM -SN OVC008=

USA.gov is the U.S. government's official web portal to all federal, state and local government web resources and services.